Terminal Aerodrome Forecast
Issued by NWS

Home | Current Version | Previous Version | Text Only | Print | Product List | Glossary On
Versions: 1 2 3 4 5 6 7 8 9 10 11 12 13 14
000
FTUS43 KEAX 221700
TAFSTJ
TAF
KSTJ 221725Z 2218/2318 18008KT P6SM SCT150 BKN250
     FM222200 19010KT P6SM VCTS SCT100CB
     FM230200 18006KT P6SM SCT100=

USA.gov is the U.S. government's official web portal to all federal, state and local government web resources and services.